createdAt,value
2023-02-08T00:01:00.509Z,-0.13
2023-02-08T00:03:29.137Z,-0.22
2023-02-08T00:05:56.090Z,0.09
2023-02-08T00:08:22.935Z,0.24
2023-02-08T00:10:50.187Z,0.47
2023-02-08T00:13:17.166Z,-0.04
2023-02-08T00:15:45.545Z,0.35
2023-02-08T00:18:13.139Z,-0.18
2023-02-08T00:20:42.077Z,-0.56
2023-02-08T00:23:08.994Z,0.07
2023-02-08T00:25:36.509Z,-0.10
2023-02-08T00:28:04.766Z,-0.06
2023-02-08T00:30:32.792Z,0.42
2023-02-08T00:33:01.390Z,0.40
2023-02-08T00:35:29.131Z,0.18
2023-02-08T00:37:56.383Z,0.11
2023-02-08T00:40:23.909Z,0.44
2023-02-08T00:42:50.753Z,0.33
2023-02-08T00:45:17.704Z,0.83
2023-02-08T00:47:44.450Z,0.73
2023-02-08T00:50:11.561Z,0.53
2023-02-08T00:52:38.780Z,0.32
2023-02-08T00:55:07.002Z,-0.63
2023-02-08T00:57:34.370Z,-0.26
2023-02-08T01:00:01.507Z,0.32
2023-02-08T01:02:29.152Z,0.71
2023-02-08T01:04:55.936Z,0.92
2023-02-08T01:07:22.783Z,0.81
2023-02-08T01:09:49.500Z,0.82
2023-02-08T01:12:16.905Z,0.85
2023-02-08T01:14:43.717Z,0.69
2023-02-08T01:17:14.883Z,0.51
2023-02-08T01:19:42.589Z,0.83
2023-02-08T01:22:09.486Z,0.57
2023-02-08T01:24:36.310Z,-0.50
2023-02-08T01:27:04.044Z,-0.83
2023-02-08T01:29:30.993Z,-0.44
2023-02-08T01:31:59.160Z,-0.49
2023-02-08T01:34:29.496Z,-0.10
2023-02-08T01:36:56.196Z,-0.46
2023-02-08T01:39:23.111Z,-0.84
2023-02-08T01:41:51.746Z,-0.40
2023-02-08T01:44:18.638Z,0.12
2023-02-08T01:46:48.724Z,0.44
2023-02-08T01:49:21.420Z,0.49
2023-02-08T01:52:04.933Z,0.58
2023-02-08T01:54:38.342Z,0.50
2023-02-08T01:57:05.226Z,0.51
2023-02-08T01:59:45.866Z,0.48
2023-02-08T02:02:16.524Z,0.52
2023-02-08T02:04:45.009Z,0.61
2023-02-08T02:07:13.452Z,0.81
2023-02-08T02:09:43.145Z,1.02
2023-02-08T02:12:11.314Z,0.94
2023-02-08T02:14:39.169Z,1.14
2023-02-08T02:17:06.844Z,1.11
2023-02-08T02:19:49.427Z,1.31
2023-02-08T02:22:31.571Z,1.09
2023-02-08T02:25:18.237Z,0.83
2023-02-08T02:28:11.158Z,1.00
2023-02-08T02:30:56.564Z,1.04
2023-02-08T02:33:38.321Z,1.34
2023-02-08T02:36:22.648Z,1.26
2023-02-08T02:39:05.709Z,1.36
2023-02-08T02:42:18.120Z,1.39
2023-02-08T02:45:14.116Z,1.16
2023-02-08T02:47:56.262Z,1.21
2023-02-08T02:50:32.051Z,1.35
2023-02-08T02:53:14.477Z,1.20
2023-02-08T02:55:47.032Z,1.39
2023-02-08T02:58:16.866Z,0.97
2023-02-08T03:00:43.775Z,0.88
2023-02-08T03:03:21.486Z,1.08
2023-02-08T03:05:49.895Z,0.94
2023-02-08T03:08:24.606Z,1.06
2023-02-08T03:11:19.990Z,1.18
2023-02-08T03:14:24.511Z,1.08
2023-02-08T03:17:18.632Z,0.24
2023-02-08T03:20:09.677Z,0.55
2023-02-08T03:22:42.263Z,0.89
2023-02-08T03:25:19.836Z,0.78
2023-02-08T03:28:12.706Z,0.64
2023-02-08T03:30:53.262Z,0.57
2023-02-08T03:33:48.631Z,0.81
2023-02-08T03:36:33.121Z,1.01
2023-02-08T03:39:03.121Z,0.84
2023-02-08T03:41:36.544Z,0.82
2023-02-08T03:44:12.206Z,0.72
2023-02-08T03:46:49.762Z,0.78
2023-02-08T03:49:24.318Z,0.82
2023-02-08T03:51:52.855Z,0.80
2023-02-08T03:54:22.763Z,0.94
2023-02-08T03:57:04.448Z,1.08
2023-02-08T03:59:37.366Z,0.84
2023-02-08T04:02:07.899Z,0.78
2023-02-08T04:04:39.369Z,0.81
2023-02-08T04:07:06.876Z,0.94
2023-02-08T04:09:33.757Z,0.75
2023-02-08T04:12:00.669Z,0.49
2023-02-08T04:14:27.449Z,0.36
2023-02-08T04:16:55.535Z,0.66
2023-02-08T04:19:22.360Z,0.69
2023-02-08T04:21:49.227Z,0.80
2023-02-08T04:24:17.005Z,0.63
2023-02-08T04:26:43.844Z,0.53
2023-02-08T04:29:10.596Z,0.69
2023-02-08T04:31:37.611Z,0.87
2023-02-08T04:34:04.731Z,0.80
2023-02-08T04:36:31.795Z,0.60
2023-02-08T04:38:58.465Z,0.55
2023-02-08T04:41:25.279Z,0.69
2023-02-08T04:43:51.979Z,0.58
2023-02-08T04:46:19.121Z,0.64
2023-02-08T04:48:46.097Z,0.64
2023-02-08T04:51:12.965Z,0.58
2023-02-08T04:53:39.657Z,0.66
2023-02-08T04:56:06.831Z,0.53
2023-02-08T04:58:33.563Z,0.40
2023-02-08T05:01:00.374Z,0.51
2023-02-08T05:03:27.112Z,0.53
2023-02-08T05:06:00.324Z,0.74
2023-02-08T05:08:28.486Z,0.70
2023-02-08T05:10:55.219Z,0.65
2023-02-08T05:13:22.057Z,0.41
2023-02-08T05:15:48.824Z,0.66
2023-02-08T05:18:15.711Z,0.53
2023-02-08T05:20:42.794Z,0.40
2023-02-08T05:23:09.670Z,0.52
2023-02-08T05:25:38.304Z,0.51
2023-02-08T05:28:05.285Z,0.54
2023-02-08T05:30:32.239Z,0.40
2023-02-08T05:32:58.911Z,0.44
2023-02-08T05:35:25.805Z,0.24
2023-02-08T05:37:52.590Z,0.17
2023-02-08T05:40:19.582Z,0.25
2023-02-08T05:42:48.106Z,-0.02
2023-02-08T05:45:16.077Z,0.16
2023-02-08T05:47:42.899Z,0.30
2023-02-08T05:50:10.545Z,0.37
2023-02-08T05:52:38.230Z,0.56
2023-02-08T05:55:06.038Z,0.61
2023-02-08T05:57:35.491Z,0.43
2023-02-08T06:00:04.301Z,0.31
2023-02-08T06:02:32.464Z,-0.21
2023-02-08T06:04:59.521Z,-0.36
2023-02-08T06:07:26.381Z,-0.48
2023-02-08T06:09:54.281Z,-0.44
2023-02-08T06:12:21.169Z,-0.50
2023-02-08T06:14:47.970Z,-0.28
2023-02-08T06:17:15.937Z,0.04
2023-02-08T06:19:42.802Z,0.05
2023-02-08T06:22:10.636Z,0.28
2023-02-08T06:24:37.489Z,0.57
2023-02-08T06:27:04.428Z,0.66
2023-02-08T06:29:31.320Z,0.70
2023-02-08T06:31:58.218Z,0.89
2023-02-08T06:34:25.353Z,0.85
2023-02-08T06:36:52.024Z,0.97
2023-02-08T06:39:18.857Z,0.83
2023-02-08T06:41:45.623Z,0.70
2023-02-08T06:44:12.729Z,0.64
2023-02-08T06:46:39.547Z,0.79
2023-02-08T06:49:06.644Z,0.44
2023-02-08T06:51:33.486Z,0.51
2023-02-08T06:54:00.159Z,0.66
2023-02-08T06:56:27.091Z,0.78
2023-02-08T06:58:53.906Z,0.96
2023-02-08T07:01:20.777Z,1.08
2023-02-08T07:03:48.577Z,1.15
2023-02-08T07:06:17.264Z,0.91
2023-02-08T07:08:44.757Z,0.82
2023-02-08T07:11:14.133Z,0.92
2023-02-08T07:13:41.389Z,1.20
2023-02-08T07:16:10.177Z,1.31
2023-02-08T07:18:37.563Z,1.32
2023-02-08T07:21:04.857Z,1.43
2023-02-08T07:23:31.926Z,1.41
2023-02-08T07:26:03.160Z,1.41
2023-02-08T07:28:30.321Z,1.50
2023-02-08T07:30:57.919Z,1.79
2023-02-08T07:33:26.179Z,1.48
2023-02-08T07:35:52.918Z,1.83
2023-02-08T07:38:20.810Z,1.85
2023-02-08T07:40:48.004Z,2.14
2023-02-08T07:43:14.981Z,2.32
2023-02-08T07:45:51.616Z,2.48
2023-02-08T07:48:18.650Z,2.43
2023-02-08T07:50:46.609Z,2.23
2023-02-08T07:53:14.331Z,1.96
2023-02-08T07:55:41.228Z,2.04
2023-02-08T07:58:07.900Z,2.28
2023-02-08T08:00:34.716Z,2.17
2023-02-08T08:03:01.511Z,2.50
2023-02-08T08:05:28.326Z,2.49
2023-02-08T08:07:55.139Z,2.20
2023-02-08T08:10:21.971Z,2.93
2023-02-08T08:12:48.706Z,2.29
2023-02-08T08:15:15.541Z,2.45
2023-02-08T08:17:42.308Z,2.64
2023-02-08T08:20:11.154Z,2.94
2023-02-08T08:22:37.999Z,3.20
2023-02-08T08:25:05.208Z,3.48
2023-02-08T08:27:32.094Z,3.68
2023-02-08T08:29:59.979Z,3.85
2023-02-08T08:32:28.137Z,3.98
2023-02-08T08:34:57.878Z,3.87
2023-02-08T08:37:24.828Z,3.93
2023-02-08T08:39:51.614Z,3.48
2023-02-08T08:42:21.194Z,3.92
2023-02-08T08:44:48.078Z,3.79
2023-02-08T08:47:15.285Z,4.32
2023-02-08T08:49:43.850Z,4.36
2023-02-08T08:52:11.885Z,4.33
2023-02-08T08:54:38.836Z,4.62
2023-02-08T08:57:05.810Z,5.11
2023-02-08T08:59:33.236Z,4.90
2023-02-08T09:02:01.294Z,5.29
2023-02-08T09:04:28.456Z,5.23
2023-02-08T09:06:55.495Z,5.49
2023-02-08T09:09:38.367Z,5.77
2023-02-08T09:12:05.726Z,5.70
2023-02-08T09:14:53.267Z,5.95
2023-02-08T09:17:32.878Z,5.90
2023-02-08T09:20:18.556Z,5.63
2023-02-08T09:22:53.799Z,5.81
2023-02-08T09:25:21.112Z,5.76
2023-02-08T09:27:56.221Z,5.00
2023-02-08T09:30:25.458Z,5.43
2023-02-08T09:32:52.379Z,5.18
2023-02-08T09:35:26.378Z,5.13
2023-02-08T09:37:58.275Z,5.14
2023-02-08T09:40:52.664Z,5.49
2023-02-08T09:43:49.478Z,6.67
2023-02-08T09:46:22.825Z,7.16
2023-02-08T09:48:52.403Z,7.01
2023-02-08T09:51:39.740Z,7.53
2023-02-08T09:54:32.855Z,7.93
2023-02-08T09:57:07.135Z,7.60
2023-02-08T09:59:35.836Z,7.69
2023-02-08T10:02:18.657Z,7.35
2023-02-08T10:05:14.049Z,6.16
2023-02-08T10:07:42.795Z,6.10
2023-02-08T10:10:38.863Z,6.63
2023-02-08T10:13:19.394Z,7.07
2023-02-08T10:16:17.865Z,6.88
2023-02-08T10:19:12.023Z,7.41
2023-02-08T10:22:14.153Z,6.60
2023-02-08T10:25:04.724Z,6.86
2023-02-08T10:27:50.245Z,6.35
2023-02-08T10:30:17.203Z,7.31
2023-02-08T10:32:55.631Z,6.93
2023-02-08T10:35:42.981Z,7.06
2023-02-08T10:38:45.415Z,6.67
2023-02-08T10:41:20.529Z,6.94
2023-02-08T10:44:38.646Z,7.28
2023-02-08T10:47:33.667Z,7.94
2023-02-08T10:50:09.217Z,8.31
2023-02-08T10:52:41.456Z,8.02
2023-02-08T10:55:18.661Z,6.97
2023-02-08T10:57:51.291Z,6.94
2023-02-08T11:00:22.641Z,6.70
2023-02-08T11:02:54.769Z,5.86
2023-02-08T11:05:35.499Z,5.21
2023-02-08T11:08:11.767Z,4.79
2023-02-08T11:10:45.299Z,5.00
2023-02-08T11:13:24.705Z,5.00
2023-02-08T11:16:00.777Z,4.69
2023-02-08T11:18:39.815Z,4.58
2023-02-08T11:21:23.921Z,4.28
2023-02-08T11:23:55.101Z,4.04
2023-02-08T11:26:25.143Z,4.24
2023-02-08T11:29:27.618Z,4.64
2023-02-08T11:32:02.445Z,4.62
2023-02-08T11:34:37.729Z,4.44
2023-02-08T11:37:28.080Z,4.13
2023-02-08T11:40:03.132Z,4.00
2023-02-08T11:42:40.126Z,4.24
2023-02-08T11:45:13.262Z,3.96
2023-02-08T11:47:40.191Z,4.07
2023-02-08T11:50:08.919Z,4.32
2023-02-08T11:52:43.371Z,4.13
2023-02-08T11:55:33.916Z,4.12
2023-02-08T11:58:12.850Z,4.18
2023-02-08T12:00:41.508Z,4.02
2023-02-08T12:03:18.302Z,4.19
2023-02-08T12:05:45.409Z,4.12
2023-02-08T12:08:59.430Z,4.23
2023-02-08T12:11:42.248Z,4.05
2023-02-08T12:14:50.868Z,4.01
2023-02-08T12:17:36.319Z,4.34
2023-02-08T12:20:32.749Z,4.03
2023-02-08T12:23:22.839Z,4.28
2023-02-08T12:26:20.162Z,4.28
2023-02-08T12:28:53.128Z,4.48
2023-02-08T12:31:46.961Z,4.66
2023-02-08T12:34:41.022Z,4.20
2023-02-08T12:38:04.598Z,4.33
2023-02-08T12:40:57.625Z,4.00
2023-02-08T12:43:39.656Z,4.19
2023-02-08T12:46:19.224Z,4.38
2023-02-08T12:48:58.044Z,4.03
2023-02-08T12:51:41.243Z,3.80
2023-02-08T12:54:37.428Z,4.28
2023-02-08T12:57:06.657Z,3.95
2023-02-08T12:59:39.684Z,4.11
2023-02-08T13:02:19.801Z,3.86
2023-02-08T13:04:51.752Z,4.00
2023-02-08T13:07:24.820Z,4.09
2023-02-08T13:10:14.670Z,4.19
2023-02-08T13:12:53.449Z,3.92
2023-02-08T13:15:31.101Z,4.10
2023-02-08T13:18:24.428Z,4.12
2023-02-08T13:21:01.713Z,3.69
2023-02-08T13:23:33.374Z,3.80
2023-02-08T13:26:17.664Z,3.53
2023-02-08T13:28:52.461Z,3.32
2023-02-08T13:31:42.021Z,3.62
2023-02-08T13:34:28.670Z,3.80
2023-02-08T13:37:24.047Z,3.55
2023-02-08T13:40:20.454Z,3.63
2023-02-08T13:42:56.710Z,3.55
2023-02-08T13:45:31.976Z,3.43
2023-02-08T13:48:02.435Z,3.38
2023-02-08T13:50:35.433Z,3.38
2023-02-08T13:53:03.622Z,3.17
2023-02-08T13:55:33.815Z,3.15
2023-02-08T13:58:02.860Z,3.46
2023-02-08T14:00:33.162Z,3.24
2023-02-08T14:03:02.378Z,3.57
2023-02-08T14:05:51.551Z,3.14
2023-02-08T14:08:22.277Z,3.02
2023-02-08T14:11:10.125Z,3.00
2023-02-08T14:13:49.032Z,3.22
2023-02-08T14:16:36.118Z,3.03
2023-02-08T14:19:06.329Z,3.25
2023-02-08T14:21:47.782Z,3.38
2023-02-08T14:24:24.478Z,3.10
2023-02-08T14:27:04.923Z,3.29
2023-02-08T14:29:33.043Z,3.39
2023-02-08T14:32:00.605Z,3.25
2023-02-08T14:34:38.126Z,3.28
2023-02-08T14:37:10.876Z,3.37
2023-02-08T14:39:37.995Z,3.50
2023-02-08T14:42:08.790Z,3.25
2023-02-08T14:44:38.686Z,3.15
2023-02-08T14:47:08.425Z,3.13
2023-02-08T14:49:42.157Z,3.28
2023-02-08T14:52:27.382Z,3.50
2023-02-08T14:55:00.012Z,3.28
2023-02-08T14:57:31.642Z,3.53
2023-02-08T15:00:01.733Z,3.46
2023-02-08T15:02:32.653Z,3.33
2023-02-08T15:05:00.835Z,3.29
2023-02-08T15:07:41.824Z,3.30
2023-02-08T15:10:17.113Z,3.20
2023-02-08T15:12:47.312Z,3.17
2023-02-08T15:15:32.516Z,3.02
2023-02-08T15:18:01.689Z,2.64
2023-02-08T15:20:31.525Z,2.92
2023-02-08T15:23:26.945Z,3.05
2023-02-08T15:25:56.394Z,2.85
2023-02-08T15:28:25.609Z,2.87
2023-02-08T15:31:06.474Z,2.91
2023-02-08T15:33:34.214Z,2.98
2023-02-08T15:36:06.516Z,2.78
2023-02-08T15:38:38.658Z,3.08
2023-02-08T15:41:23.620Z,3.01
2023-02-08T15:43:50.738Z,2.90
2023-02-08T15:46:22.622Z,2.84
2023-02-08T15:48:50.631Z,2.87
2023-02-08T15:51:20.263Z,3.19
2023-02-08T15:53:50.446Z,3.17
2023-02-08T15:56:34.278Z,3.23
2023-02-08T15:59:06.742Z,3.23
2023-02-08T16:01:34.000Z,3.38
2023-02-08T16:04:12.310Z,3.24
2023-02-08T16:06:45.414Z,3.05
2023-02-08T16:09:25.300Z,2.85
2023-02-08T16:11:54.011Z,2.92
2023-02-08T16:14:28.739Z,2.82
2023-02-08T16:16:58.586Z,2.79
2023-02-08T16:19:29.689Z,2.66
2023-02-08T16:22:16.644Z,2.91
2023-02-08T16:24:43.565Z,2.87
2023-02-08T16:27:25.599Z,2.84
2023-02-08T16:29:53.071Z,2.87
2023-02-08T16:32:35.925Z,2.89
2023-02-08T16:35:14.699Z,2.76
2023-02-08T16:37:42.257Z,2.70
2023-02-08T16:40:40.330Z,3.00
2023-02-08T16:43:31.809Z,2.86
2023-02-08T16:46:10.748Z,2.49
2023-02-08T16:48:49.185Z,2.63
2023-02-08T16:51:23.911Z,2.60
2023-02-08T16:54:02.622Z,2.50
2023-02-08T16:56:30.697Z,2.59
2023-02-08T16:58:57.476Z,2.52
2023-02-08T17:01:24.648Z,2.38
2023-02-08T17:03:53.081Z,2.18
2023-02-08T17:06:49.955Z,2.30
2023-02-08T17:09:16.767Z,2.49
2023-02-08T17:11:43.516Z,2.16
2023-02-08T17:14:10.410Z,2.36
2023-02-08T17:16:39.996Z,2.41
2023-02-08T17:19:07.344Z,2.10
2023-02-08T17:21:34.090Z,2.40
2023-02-08T17:24:01.876Z,2.30
2023-02-08T17:26:37.099Z,2.08
2023-02-08T17:29:04.463Z,2.18
2023-02-08T17:31:33.282Z,2.03
2023-02-08T17:34:07.181Z,1.84
2023-02-08T17:36:36.815Z,2.10
2023-02-08T17:39:05.575Z,2.03
2023-02-08T17:41:33.523Z,2.08
2023-02-08T17:44:00.320Z,2.26
2023-02-08T17:46:32.538Z,2.17
2023-02-08T17:49:01.649Z,2.21
2023-02-08T17:51:28.474Z,2.18
2023-02-08T17:53:55.355Z,2.17
2023-02-08T17:56:24.349Z,1.97
2023-02-08T17:58:53.922Z,1.86
2023-02-08T18:01:24.927Z,1.94
2023-02-08T18:03:52.872Z,2.15
2023-02-08T18:06:20.928Z,2.18
2023-02-08T18:08:47.759Z,1.92
2023-02-08T18:11:19.671Z,1.79
2023-02-08T18:13:51.626Z,2.04
2023-02-08T18:16:24.717Z,1.92
2023-02-08T18:18:52.505Z,2.04
2023-02-08T18:21:21.233Z,2.08
2023-02-08T18:23:49.634Z,2.06
2023-02-08T18:26:19.033Z,1.97
2023-02-08T18:28:46.563Z,1.93
2023-02-08T18:31:16.420Z,2.14
2023-02-08T18:33:43.976Z,2.04
2023-02-08T18:36:11.681Z,2.08
2023-02-08T18:38:40.497Z,2.04
2023-02-08T18:41:09.497Z,1.98
2023-02-08T18:43:37.400Z,2.08
2023-02-08T18:46:06.665Z,1.90
2023-02-08T18:48:33.657Z,2.06
2023-02-08T18:51:03.156Z,2.02
2023-02-08T18:53:33.519Z,1.80
2023-02-08T18:56:02.204Z,1.69
2023-02-08T18:58:29.797Z,1.59
2023-02-08T19:01:05.209Z,1.69
2023-02-08T19:03:32.208Z,1.61
2023-02-08T19:06:10.348Z,1.21
2023-02-08T19:08:40.353Z,1.47
2023-02-08T19:11:34.975Z,1.24
2023-02-08T19:14:04.584Z,1.08
2023-02-08T19:16:32.953Z,1.14
2023-02-08T19:19:01.278Z,1.01
2023-02-08T19:21:30.053Z,1.17
2023-02-08T19:24:03.492Z,1.33
2023-02-08T19:26:33.861Z,1.24
2023-02-08T19:29:03.427Z,1.45
2023-02-08T19:31:30.851Z,1.36
2023-02-08T19:34:00.998Z,1.31
2023-02-08T19:36:37.231Z,1.38
2023-02-08T19:39:06.592Z,1.28
2023-02-08T19:41:39.485Z,1.21
2023-02-08T19:44:08.955Z,1.23
2023-02-08T19:46:38.877Z,1.22
2023-02-08T19:49:07.460Z,1.33
2023-02-08T19:51:37.035Z,1.12
2023-02-08T19:54:07.159Z,0.77
2023-02-08T19:56:34.829Z,1.13
2023-02-08T19:59:04.127Z,1.25
2023-02-08T20:01:34.490Z,1.30
2023-02-08T20:04:02.862Z,1.11
2023-02-08T20:06:33.798Z,1.12
2023-02-08T20:09:00.768Z,1.23
2023-02-08T20:11:35.894Z,1.21
2023-02-08T20:14:03.363Z,1.25
2023-02-08T20:16:31.868Z,1.19
2023-02-08T20:18:59.597Z,1.27
2023-02-08T20:21:27.085Z,0.99
2023-02-08T20:23:55.369Z,1.14
2023-02-08T20:26:27.626Z,1.11
2023-02-08T20:28:57.339Z,0.72
2023-02-08T20:31:33.092Z,0.90
2023-02-08T20:34:03.396Z,0.91
2023-02-08T20:36:40.560Z,0.88
2023-02-08T20:39:11.072Z,0.63
2023-02-08T20:41:38.608Z,0.80
2023-02-08T20:44:05.700Z,0.83
2023-02-08T20:46:34.785Z,0.90
2023-02-08T20:49:05.073Z,0.66
2023-02-08T20:51:32.150Z,0.78
2023-02-08T20:54:00.730Z,0.97
2023-02-08T20:56:34.779Z,0.95
2023-02-08T20:59:07.376Z,0.69
2023-02-08T21:01:35.724Z,0.86
2023-02-08T21:04:03.168Z,0.81
2023-02-08T21:06:36.087Z,0.90
2023-02-08T21:09:06.711Z,0.78
2023-02-08T21:11:34.435Z,0.85
2023-02-08T21:14:02.077Z,0.53
2023-02-08T21:16:30.845Z,0.44
2023-02-08T21:19:00.593Z,0.60
2023-02-08T21:21:28.343Z,0.35
2023-02-08T21:23:56.876Z,0.07
2023-02-08T21:26:25.485Z,0.34
2023-02-08T21:28:54.329Z,0.12
2023-02-08T21:31:22.569Z,0.39
2023-02-08T21:33:50.171Z,0.43
2023-02-08T21:36:20.637Z,0.38
2023-02-08T21:38:47.585Z,0.64
2023-02-08T21:41:20.817Z,0.55
2023-02-08T21:43:48.974Z,0.40
2023-02-08T21:46:16.299Z,0.24
2023-02-08T21:49:02.241Z,0.19
2023-02-08T21:51:47.953Z,0.29
2023-02-08T21:54:41.498Z,0.17
2023-02-08T21:57:14.368Z,0.09
2023-02-08T21:59:41.328Z,0.21
2023-02-08T22:02:12.837Z,0.53
2023-02-08T22:04:58.188Z,0.35
2023-02-08T22:07:26.498Z,0.32
2023-02-08T22:09:55.435Z,0.29
2023-02-08T22:12:23.181Z,0.43
2023-02-08T22:14:50.632Z,0.42
2023-02-08T22:17:19.465Z,0.41
2023-02-08T22:19:47.287Z,0.40
2023-02-08T22:22:19.885Z,0.48
2023-02-08T22:24:46.874Z,0.27
2023-02-08T22:27:13.684Z,0.41
2023-02-08T22:29:40.578Z,0.18
2023-02-08T22:32:09.987Z,0.23
2023-02-08T22:34:38.187Z,0.17
2023-02-08T22:37:04.974Z,0.04
2023-02-08T22:39:33.025Z,0.10
2023-02-08T22:41:59.822Z,0.03
2023-02-08T22:44:26.673Z,0.14
2023-02-08T22:46:53.425Z,0.14
2023-02-08T22:49:20.298Z,0.17
2023-02-08T22:51:47.034Z,0.25
2023-02-08T22:54:13.938Z,0.19
2023-02-08T22:56:40.737Z,-0.19
2023-02-08T22:59:07.544Z,0.02
2023-02-08T23:01:34.364Z,-0.08
2023-02-08T23:04:01.222Z,-0.26
2023-02-08T23:06:28.465Z,-0.42
2023-02-08T23:08:55.472Z,-0.27
2023-02-08T23:11:22.255Z,-0.57
2023-02-08T23:13:48.984Z,-0.33
2023-02-08T23:16:18.571Z,-0.24
2023-02-08T23:18:45.595Z,-0.12
2023-02-08T23:21:16.546Z,-0.34
2023-02-08T23:23:45.090Z,-0.47
2023-02-08T23:26:17.697Z,-0.20
2023-02-08T23:28:45.005Z,-0.23
2023-02-08T23:31:13.873Z,-0.20
2023-02-08T23:33:41.562Z,-0.38
2023-02-08T23:36:14.432Z,-0.34
2023-02-08T23:38:42.293Z,-0.63
2023-02-08T23:41:14.703Z,-0.48
2023-02-08T23:43:41.858Z,-0.47
2023-02-08T23:46:22.705Z,-0.42
2023-02-08T23:48:49.906Z,-0.56
2023-02-08T23:51:19.212Z,-0.50
2023-02-08T23:53:46.499Z,-0.53
2023-02-08T23:56:21.949Z,-0.46
2023-02-08T23:58:51.536Z,-0.81
